sensor_id;sensor_type;location;lat;lon;timestamp;pressure;altitude;pressure_sealevel;temperature;humidity
39209;BME280;24929;51.982;4.664;2022-12-11T00:00:14;77607.44;;;-143.36;nan
39209;BME280;24929;51.982;4.664;2022-12-11T00:02:39;77591.38;;;-143.36;nan
39209;BME280;24929;51.982;4.664;2022-12-11T00:05:05;77583.34;;;-143.36;nan
39209;BME280;24929;51.982;4.664;2022-12-11T00:07:30;77567.31;;;-143.36;nan
39209;BME280;24929;51.982;4.664;2022-12-11T00:09:56;77599.41;;;-143.36;nan
39209;BME280;24929;51.982;4.664;2022-12-11T00:12:21;77627.53;;;-143.36;nan
39209;BME280;24929;51.982;4.664;2022-12-11T00:14:47;77587.38;;;-143.36;nan
39209;BME280;24929;51.982;4.664;2022-12-11T00:17:12;77625.50;;;-143.36;nan
39209;BME280;24929;51.982;4.664;2022-12-11T00:19:37;77603.44;;;-143.36;nan
39209;BME280;24929;51.982;4.664;2022-12-11T00:22:03;77581.34;;;-143.36;nan
39209;BME280;24929;51.982;4.664;2022-12-11T00:24:28;77569.31;;;-143.36;nan
39209;BME280;24929;51.982;4.664;2022-12-11T00:26:53;77621.50;;;-143.36;nan
39209;BME280;24929;51.982;4.664;2022-12-11T00:29:19;77577.34;;;-143.36;nan
39209;BME280;24929;51.982;4.664;2022-12-11T00:31:44;77595.41;;;-143.36;nan
39209;BME280;24929;51.982;4.664;2022-12-11T00:34:09;77617.47;;;-143.36;nan
39209;BME280;24929;51.982;4.664;2022-12-11T00:36:36;77567.31;;;-143.36;nan
39209;BME280;24929;51.982;4.664;2022-12-11T00:39:03;77581.34;;;-143.36;nan
39209;BME280;24929;51.982;4.664;2022-12-11T00:41:28;77631.53;;;-143.36;nan
39209;BME280;24929;51.982;4.664;2022-12-11T00:43:53;77597.41;;;-143.36;nan
39209;BME280;24929;51.982;4.664;2022-12-11T00:46:19;77605.44;;;-143.36;nan
39209;BME280;24929;51.982;4.664;2022-12-11T00:48:44;77607.44;;;-143.36;nan
39209;BME280;24929;51.982;4.664;2022-12-11T00:51:11;77555.25;;;-143.36;nan
39209;BME280;24929;51.982;4.664;2022-12-11T00:53:37;77599.41;;;-143.36;nan
39209;BME280;24929;51.982;4.664;2022-12-11T00:56:09;77567.31;;;-143.36;nan
39209;BME280;24929;51.982;4.664;2022-12-11T00:58:35;77621.50;;;-143.36;nan
39209;BME280;24929;51.982;4.664;2022-12-11T01:01:08;77549.25;;;-143.36;nan
39209;BME280;24929;51.982;4.664;2022-12-11T01:03:34;77567.31;;;-143.36;nan
39209;BME280;24929;51.982;4.664;2022-12-11T01:05:59;77595.41;;;-143.36;nan
39209;BME280;24929;51.982;4.664;2022-12-11T01:08:24;77609.47;;;-143.36;nan
39209;BME280;24929;51.982;4.664;2022-12-11T01:10:50;77609.47;;;-143.36;nan
39209;BME280;24929;51.982;4.664;2022-12-11T01:13:15;77617.47;;;-143.36;nan
39209;BME280;24929;51.982;4.664;2022-12-11T01:15:44;77581.34;;;-143.36;nan
39209;BME280;24929;51.982;4.664;2022-12-11T01:18:12;77615.47;;;-143.36;nan
39209;BME280;24929;51.982;4.664;2022-12-11T01:20:39;77607.44;;;-143.36;nan
39209;BME280;24929;51.982;4.664;2022-12-11T01:23:05;77641.56;;;-143.36;nan
39209;BME280;24929;51.982;4.664;2022-12-11T01:25:31;77609.47;;;-143.36;nan
39209;BME280;24929;51.982;4.664;2022-12-11T01:27:57;77609.47;;;-143.36;nan
39209;BME280;24929;51.982;4.664;2022-12-11T01:30:24;77575.34;;;-143.36;nan
39209;BME280;24929;51.982;4.664;2022-12-11T01:32:49;77621.50;;;-143.36;nan
39209;BME280;24929;51.982;4.664;2022-12-11T01:35:15;77647.59;;;-143.36;nan
39209;BME280;24929;51.982;4.664;2022-12-11T01:37:42;77679.72;;;-143.36;nan
39209;BME280;24929;51.982;4.664;2022-12-11T01:40:08;77675.69;;;-143.36;nan
39209;BME280;24929;51.982;4.664;2022-12-11T01:42:34;77657.63;;;-143.36;nan
39209;BME280;24929;51.982;4.664;2022-12-11T01:45:22;77585.38;;;-143.36;nan
39209;BME280;24929;51.982;4.664;2022-12-11T01:47:50;77639.56;;;-143.36;nan
39209;BME280;24929;51.982;4.664;2022-12-11T01:50:16;77653.63;;;-143.36;nan
39209;BME280;24929;51.982;4.664;2022-12-11T01:52:43;77629.53;;;-143.36;nan
39209;BME280;24929;51.982;4.664;2022-12-11T01:55:11;77623.50;;;-143.36;nan
39209;BME280;24929;51.982;4.664;2022-12-11T01:57:39;77615.47;;;-143.36;nan
39209;BME280;24929;51.982;4.664;2022-12-11T02:00:07;77639.56;;;-143.36;nan
39209;BME280;24929;51.982;4.664;2022-12-11T02:02:32;77703.81;;;-143.36;nan
39209;BME280;24929;51.982;4.664;2022-12-11T02:05:01;77639.56;;;-143.36;nan
39209;BME280;24929;51.982;4.664;2022-12-11T02:07:28;77679.72;;;-143.36;nan
39209;BME280;24929;51.982;4.664;2022-12-11T02:09:54;77693.75;;;-143.36;nan
39209;BME280;24929;51.982;4.664;2022-12-11T02:12:51;77603.44;;;-143.36;nan
39209;BME280;24929;51.982;4.664;2022-12-11T02:20:40;77581.34;;;-143.36;nan
39209;BME280;24929;51.982;4.664;2022-12-11T02:28:46;77625.50;;;-143.36;nan
39209;BME280;24929;51.982;4.664;2022-12-11T02:31:23;77623.50;;;-143.36;nan
39209;BME280;24929;51.982;4.664;2022-12-11T02:36:31;77667.66;;;-143.36;nan
39209;BME280;24929;51.982;4.664;2022-12-11T02:38:59;77693.75;;;-143.36;nan
39209;BME280;24929;51.982;4.664;2022-12-11T02:41:26;77665.66;;;-143.36;nan
39209;BME280;24929;51.982;4.664;2022-12-11T02:43:54;77687.75;;;-143.36;nan
39209;BME280;24929;51.982;4.664;2022-12-11T02:46:21;77687.75;;;-143.36;nan
39209;BME280;24929;51.982;4.664;2022-12-11T02:48:49;77647.59;;;-143.36;nan
39209;BME280;24929;51.982;4.664;2022-12-11T02:51:16;77673.69;;;-143.36;nan
39209;BME280;24929;51.982;4.664;2022-12-11T02:53:44;77625.50;;;-143.36;nan
39209;BME280;24929;51.982;4.664;2022-12-11T02:56:15;77609.47;;;-143.36;nan
39209;BME280;24929;51.982;4.664;2022-12-11T02:58:52;77591.38;;;-143.36;nan
39209;BME280;24929;51.982;4.664;2022-12-11T03:01:19;77657.63;;;-143.36;nan
39209;BME280;24929;51.982;4.664;2022-12-11T03:03:45;77693.75;;;-143.36;nan
39209;BME280;24929;51.982;4.664;2022-12-11T03:06:13;77609.47;;;-143.36;nan
39209;BME280;24929;51.982;4.664;2022-12-11T03:08:42;77627.53;;;-143.36;nan
39209;BME280;24929;51.982;4.664;2022-12-11T03:11:10;77615.47;;;-143.36;nan
39209;BME280;24929;51.982;4.664;2022-12-11T03:13:36;77655.63;;;-143.36;nan
39209;BME280;24929;51.982;4.664;2022-12-11T03:16:09;77669.69;;;-143.36;nan
39209;BME280;24929;51.982;4.664;2022-12-11T03:21:37;77569.31;;;-143.36;nan
39209;BME280;24929;51.982;4.664;2022-12-11T03:24:04;77543.22;;;-143.36;nan
39209;BME280;24929;51.982;4.664;2022-12-11T03:26:36;77573.31;;;-143.36;nan
39209;BME280;24929;51.982;4.664;2022-12-11T03:29:09;77553.25;;;-143.36;nan
39209;BME280;24929;51.982;4.664;2022-12-11T03:31:49;77601.44;;;-143.36;nan
39209;BME280;24929;51.982;4.664;2022-12-11T03:34:22;77599.41;;;-143.36;nan
39209;BME280;24929;51.982;4.664;2022-12-11T03:36:50;77627.53;;;-143.36;nan
39209;BME280;24929;51.982;4.664;2022-12-11T03:39:21;77591.38;;;-143.36;nan
39209;BME280;24929;51.982;4.664;2022-12-11T03:41:49;77607.44;;;-143.36;nan
39209;BME280;24929;51.982;4.664;2022-12-11T03:44:18;77589.38;;;-143.36;nan
39209;BME280;24929;51.982;4.664;2022-12-11T03:46:45;77587.38;;;-143.36;nan
39209;BME280;24929;51.982;4.664;2022-12-11T03:49:16;77581.34;;;-143.36;nan
39209;BME280;24929;51.982;4.664;2022-12-11T03:51:46;77589.38;;;-143.36;nan
39209;BME280;24929;51.982;4.664;2022-12-11T03:54:13;77603.44;;;-143.36;nan
39209;BME280;24929;51.982;4.664;2022-12-11T03:56:39;77605.44;;;-143.36;nan
39209;BME280;24929;51.982;4.664;2022-12-11T03:59:07;77595.41;;;-143.36;nan
39209;BME280;24929;51.982;4.664;2022-12-11T04:01:33;77639.56;;;-143.36;nan
39209;BME280;24929;51.982;4.664;2022-12-11T04:03:58;77615.47;;;-143.36;nan
39209;BME280;24929;51.982;4.664;2022-12-11T04:06:23;77577.34;;;-143.36;nan
39209;BME280;24929;51.982;4.664;2022-12-11T04:08:49;77587.38;;;-143.36;nan
39209;BME280;24929;51.982;4.664;2022-12-11T04:11:14;77581.34;;;-143.36;nan
39209;BME280;24929;51.982;4.664;2022-12-11T04:13:58;77559.28;;;-143.36;nan
39209;BME280;24929;51.982;4.664;2022-12-11T04:16:43;77591.38;;;-143.36;nan
39209;BME280;24929;51.982;4.664;2022-12-11T04:19:08;77573.31;;;-143.36;nan
39209;BME280;24929;51.982;4.664;2022-12-11T04:21:52;77547.22;;;-143.36;nan
39209;BME280;24929;51.982;4.664;2022-12-11T04:24:36;77571.31;;;-143.36;nan
39209;BME280;24929;51.982;4.664;2022-12-11T04:27:01;77543.22;;;-143.36;nan
39209;BME280;24929;51.982;4.664;2022-12-11T04:29:27;77561.28;;;-143.36;nan
39209;BME280;24929;51.982;4.664;2022-12-11T04:31:52;77549.25;;;-143.36;nan
39209;BME280;24929;51.982;4.664;2022-12-11T04:34:18;77567.31;;;-143.36;nan
39209;BME280;24929;51.982;4.664;2022-12-11T04:36:43;77533.19;;;-143.36;nan
39209;BME280;24929;51.982;4.664;2022-12-11T04:39:09;77565.28;;;-143.36;nan
39209;BME280;24929;51.982;4.664;2022-12-11T04:41:34;77549.25;;;-143.36;nan
39209;BME280;24929;51.982;4.664;2022-12-11T04:44:00;77589.38;;;-143.36;nan
39209;BME280;24929;51.982;4.664;2022-12-11T04:46:25;77603.44;;;-143.36;nan
39209;BME280;24929;51.982;4.664;2022-12-11T04:48:51;77579.34;;;-143.36;nan
39209;BME280;24929;51.982;4.664;2022-12-11T04:51:18;77583.34;;;-143.36;nan
39209;BME280;24929;51.982;4.664;2022-12-11T04:53:44;77619.50;;;-143.36;nan
39209;BME280;24929;51.982;4.664;2022-12-11T04:56:12;77617.47;;;-143.36;nan
39209;BME280;24929;51.982;4.664;2022-12-11T04:58:38;77633.53;;;-143.36;nan
39209;BME280;24929;51.982;4.664;2022-12-11T05:01:15;77603.44;;;-143.36;nan
39209;BME280;24929;51.982;4.664;2022-12-11T05:03:42;77639.56;;;-143.36;nan
39209;BME280;24929;51.982;4.664;2022-12-11T05:06:08;77615.47;;;-143.36;nan
39209;BME280;24929;51.982;4.664;2022-12-11T05:08:35;77637.56;;;-143.36;nan
39209;BME280;24929;51.982;4.664;2022-12-11T05:11:03;77627.53;;;-143.36;nan
39209;BME280;24929;51.982;4.664;2022-12-11T05:13:29;77665.66;;;-143.36;nan
39209;BME280;24929;51.982;4.664;2022-12-11T05:15:55;77617.47;;;-143.36;nan
39209;BME280;24929;51.982;4.664;2022-12-11T05:18:21;77627.53;;;-143.36;nan
39209;BME280;24929;51.982;4.664;2022-12-11T05:20:57;77587.38;;;-143.36;nan
39209;BME280;24929;51.982;4.664;2022-12-11T05:23:23;77625.50;;;-143.36;nan
39209;BME280;24929;51.982;4.664;2022-12-11T05:25:53;77567.31;;;-143.36;nan
39209;BME280;24929;51.982;4.664;2022-12-11T05:28:19;77601.44;;;-143.36;nan
39209;BME280;24929;51.982;4.664;2022-12-11T05:30:45;77605.44;;;-143.36;nan
39209;BME280;24929;51.982;4.664;2022-12-11T05:33:10;77605.44;;;-143.36;nan
39209;BME280;24929;51.982;4.664;2022-12-11T05:35:35;77603.44;;;-143.36;nan
39209;BME280;24929;51.982;4.664;2022-12-11T05:38:01;77591.38;;;-143.36;nan
39209;BME280;24929;51.982;4.664;2022-12-11T05:40:26;77591.38;;;-143.36;nan
39209;BME280;24929;51.982;4.664;2022-12-11T05:42:51;77569.31;;;-143.36;nan
39209;BME280;24929;51.982;4.664;2022-12-11T05:45:17;77597.41;;;-143.36;nan
39209;BME280;24929;51.982;4.664;2022-12-11T05:47:42;77617.47;;;-143.36;nan
39209;BME280;24929;51.982;4.664;2022-12-11T05:50:08;77595.41;;;-143.36;nan
39209;BME280;24929;51.982;4.664;2022-12-11T05:52:33;77581.34;;;-143.36;nan
39209;BME280;24929;51.982;4.664;2022-12-11T05:54:59;77603.44;;;-143.36;nan
39209;BME280;24929;51.982;4.664;2022-12-11T05:57:24;77619.50;;;-143.36;nan
39209;BME280;24929;51.982;4.664;2022-12-11T05:59:49;77621.50;;;-143.36;nan
39209;BME280;24929;51.982;4.664;2022-12-11T06:02:15;77643.56;;;-143.36;nan
39209;BME280;24929;51.982;4.664;2022-12-11T06:04:40;77621.50;;;-143.36;nan
39209;BME280;24929;51.982;4.664;2022-12-11T06:07:05;77605.44;;;-143.36;nan
39209;BME280;24929;51.982;4.664;2022-12-11T06:09:31;77633.53;;;-143.36;nan
39209;BME280;24929;51.982;4.664;2022-12-11T06:11:56;77637.56;;;-143.36;nan
39209;BME280;24929;51.982;4.664;2022-12-11T06:14:21;77649.59;;;-143.36;nan
39209;BME280;24929;51.982;4.664;2022-12-11T06:16:47;77619.50;;;-143.36;nan
39209;BME280;24929;51.982;4.664;2022-12-11T06:19:13;77587.38;;;-143.36;nan
39209;BME280;24929;51.982;4.664;2022-12-11T06:21:39;77601.44;;;-143.36;nan
39209;BME280;24929;51.982;4.664;2022-12-11T06:24:05;77637.56;;;-143.36;nan
39209;BME280;24929;51.982;4.664;2022-12-11T06:26:30;77633.53;;;-143.36;nan
39209;BME280;24929;51.982;4.664;2022-12-11T06:28:56;77639.56;;;-143.36;nan
39209;BME280;24929;51.982;4.664;2022-12-11T06:31:21;77657.63;;;-143.36;nan
39209;BME280;24929;51.982;4.664;2022-12-11T06:33:47;77693.75;;;-143.36;nan
39209;BME280;24929;51.982;4.664;2022-12-11T06:36:17;77603.44;;;-143.36;nan
39209;BME280;24929;51.982;4.664;2022-12-11T06:38:44;77619.50;;;-143.36;nan
39209;BME280;24929;51.982;4.664;2022-12-11T06:41:09;77633.53;;;-143.36;nan
39209;BME280;24929;51.982;4.664;2022-12-11T06:43:37;77603.44;;;-143.36;nan
39209;BME280;24929;51.982;4.664;2022-12-11T06:46:04;77585.38;;;-143.36;nan
39209;BME280;24929;51.982;4.664;2022-12-11T06:48:30;77617.47;;;-143.36;nan
39209;BME280;24929;51.982;4.664;2022-12-11T06:50:55;77613.47;;;-143.36;nan
39209;BME280;24929;51.982;4.664;2022-12-11T06:53:22;77611.47;;;-143.36;nan
39209;BME280;24929;51.982;4.664;2022-12-11T06:55:47;77607.44;;;-143.36;nan
39209;BME280;24929;51.982;4.664;2022-12-11T06:58:12;77629.53;;;-143.36;nan
39209;BME280;24929;51.982;4.664;2022-12-11T07:00:38;77623.50;;;-143.36;nan
39209;BME280;24929;51.982;4.664;2022-12-11T07:03:03;77633.53;;;-143.36;nan
39209;BME280;24929;51.982;4.664;2022-12-11T07:05:30;77587.38;;;-143.36;nan
39209;BME280;24929;51.982;4.664;2022-12-11T07:07:56;77607.44;;;-143.36;nan
39209;BME280;24929;51.982;4.664;2022-12-11T07:10:22;77591.38;;;-143.36;nan
39209;BME280;24929;51.982;4.664;2022-12-11T07:12:48;77631.53;;;-143.36;nan
39209;BME280;24929;51.982;4.664;2022-12-11T07:15:14;77635.56;;;-143.36;nan
39209;BME280;24929;51.982;4.664;2022-12-11T07:17:39;77605.44;;;-143.36;nan
39209;BME280;24929;51.982;4.664;2022-12-11T07:20:05;77611.47;;;-143.36;nan
39209;BME280;24929;51.982;4.664;2022-12-11T07:22:31;77609.47;;;-143.36;nan
39209;BME280;24929;51.982;4.664;2022-12-11T07:24:56;77603.44;;;-143.36;nan
39209;BME280;24929;51.982;4.664;2022-12-11T07:27:21;77595.41;;;-143.36;nan
39209;BME280;24929;51.982;4.664;2022-12-11T07:29:47;77639.56;;;-143.36;nan
39209;BME280;24929;51.982;4.664;2022-12-11T07:32:14;77637.56;;;-143.36;nan
39209;BME280;24929;51.982;4.664;2022-12-11T07:34:39;77613.47;;;-143.36;nan
39209;BME280;24929;51.982;4.664;2022-12-11T07:37:05;77611.47;;;-143.36;nan
39209;BME280;24929;51.982;4.664;2022-12-11T07:39:30;77629.53;;;-143.36;nan
39209;BME280;24929;51.982;4.664;2022-12-11T07:41:56;77629.53;;;-143.36;nan
39209;BME280;24929;51.982;4.664;2022-12-11T07:44:22;77643.56;;;-143.36;nan
39209;BME280;24929;51.982;4.664;2022-12-11T07:46:48;77645.59;;;-143.36;nan
39209;BME280;24929;51.982;4.664;2022-12-11T07:49:13;77637.56;;;-143.36;nan
39209;BME280;24929;51.982;4.664;2022-12-11T07:51:38;77645.59;;;-143.36;nan
39209;BME280;24929;51.982;4.664;2022-12-11T07:54:10;77613.47;;;-143.36;nan
39209;BME280;24929;51.982;4.664;2022-12-11T07:56:37;77667.66;;;-143.36;nan
39209;BME280;24929;51.982;4.664;2022-12-11T07:59:04;77651.59;;;-143.36;nan
39209;BME280;24929;51.982;4.664;2022-12-11T08:01:31;77631.53;;;-143.36;nan
39209;BME280;24929;51.982;4.664;2022-12-11T08:03:59;77631.53;;;-143.36;nan
39209;BME280;24929;51.982;4.664;2022-12-11T08:06:29;77583.34;;;-143.36;nan
39209;BME280;24929;51.982;4.664;2022-12-11T08:08:56;77597.41;;;-143.36;nan
39209;BME280;24929;51.982;4.664;2022-12-11T08:11:23;77613.47;;;-143.36;nan
39209;BME280;24929;51.982;4.664;2022-12-11T08:13:49;77635.56;;;-143.36;nan
39209;BME280;24929;51.982;4.664;2022-12-11T08:16:16;77609.47;;;-143.36;nan
39209;BME280;24929;51.982;4.664;2022-12-11T08:18:42;77601.44;;;-143.36;nan
39209;BME280;24929;51.982;4.664;2022-12-11T08:21:22;77569.31;;;-143.36;nan
39209;BME280;24929;51.982;4.664;2022-12-11T08:23:49;77623.50;;;-143.36;nan
39209;BME280;24929;51.982;4.664;2022-12-11T08:26:18;77591.38;;;-143.36;nan
39209;BME280;24929;51.982;4.664;2022-12-11T08:28:44;77637.56;;;-143.36;nan
39209;BME280;24929;51.982;4.664;2022-12-11T08:31:11;77623.50;;;-143.36;nan
39209;BME280;24929;51.982;4.664;2022-12-11T08:33:38;77617.47;;;-143.36;nan
39209;BME280;24929;51.982;4.664;2022-12-11T08:36:05;77587.38;;;-143.36;nan
39209;BME280;24929;51.982;4.664;2022-12-11T08:38:32;77657.63;;;-143.36;nan
39209;BME280;24929;51.982;4.664;2022-12-11T08:40:57;77651.59;;;-143.36;nan
39209;BME280;24929;51.982;4.664;2022-12-11T08:43:23;77635.56;;;-143.36;nan
39209;BME280;24929;51.982;4.664;2022-12-11T08:45:49;77657.63;;;-143.36;nan
39209;BME280;24929;51.982;4.664;2022-12-11T08:48:14;77617.47;;;-143.36;nan
39209;BME280;24929;51.982;4.664;2022-12-11T08:50:40;77577.34;;;-143.36;nan
39209;BME280;24929;51.982;4.664;2022-12-11T08:53:05;77593.41;;;-143.36;nan
39209;BME280;24929;51.982;4.664;2022-12-11T08:55:31;77597.41;;;-143.36;nan
39209;BME280;24929;51.982;4.664;2022-12-11T08:57:57;77635.56;;;-143.36;nan
39209;BME280;24929;51.982;4.664;2022-12-11T09:07:20;77591.38;;;-143.36;nan
39209;BME280;24929;51.982;4.664;2022-12-11T09:09:45;77593.41;;;-143.36;nan
39209;BME280;24929;51.982;4.664;2022-12-11T09:12:11;77605.44;;;-143.36;nan
39209;BME280;24929;51.982;4.664;2022-12-11T09:14:36;77555.25;;;-143.36;nan
39209;BME280;24929;51.982;4.664;2022-12-11T09:17:03;77545.22;;;-143.36;nan
39209;BME280;24929;51.982;4.664;2022-12-11T09:19:29;77565.28;;;-143.36;nan
39209;BME280;24929;51.982;4.664;2022-12-11T09:21:54;77585.38;;;-143.36;nan
39209;BME280;24929;51.982;4.664;2022-12-11T09:24:20;77565.28;;;-143.36;nan
39209;BME280;24929;51.982;4.664;2022-12-11T09:26:45;77575.34;;;-143.36;nan
39209;BME280;24929;51.982;4.664;2022-12-11T09:29:11;77573.31;;;-143.36;nan
39209;BME280;24929;51.982;4.664;2022-12-11T09:31:37;77581.34;;;-143.36;nan
39209;BME280;24929;51.982;4.664;2022-12-11T09:34:05;77517.13;;;-143.36;nan
39209;BME280;24929;51.982;4.664;2022-12-11T09:36:32;77565.28;;;-143.36;nan
39209;BME280;24929;51.982;4.664;2022-12-11T09:39:02;77521.13;;;-143.36;nan
39209;BME280;24929;51.982;4.664;2022-12-11T09:41:54;77487.00;;;-143.36;nan
39209;BME280;24929;51.982;4.664;2022-12-11T09:44:37;77547.22;;;-143.36;nan
39209;BME280;24929;51.982;4.664;2022-12-11T09:47:37;77537.19;;;-143.36;nan
39209;BME280;24929;51.982;4.664;2022-12-11T09:52:52;77501.06;;;-143.36;nan
39209;BME280;24929;51.982;4.664;2022-12-11T09:55:23;77535.19;;;-143.36;nan
39209;BME280;24929;51.982;4.664;2022-12-11T09:57:58;77587.38;;;-143.36;nan
39209;BME280;24929;51.982;4.664;2022-12-11T10:05:46;77525.16;;;-143.36;nan
39209;BME280;24929;51.982;4.664;2022-12-11T10:11:44;77519.13;;;-143.36;nan
39209;BME280;24929;51.982;4.664;2022-12-11T10:17:17;77489.03;;;-143.36;nan
39209;BME280;24929;51.982;4.664;2022-12-11T10:19:44;77531.16;;;-143.36;nan
39209;BME280;24929;51.982;4.664;2022-12-11T10:22:21;77481.00;;;-143.36;nan
39209;BME280;24929;51.982;4.664;2022-12-11T10:25:12;77446.88;;;-143.36;nan
39209;BME280;24929;51.982;4.664;2022-12-11T10:27:39;77454.91;;;-143.36;nan
39209;BME280;24929;51.982;4.664;2022-12-11T10:30:22;77432.81;;;-143.36;nan
39209;BME280;24929;51.982;4.664;2022-12-11T10:35:42;77362.56;;;-143.36;nan
39209;BME280;24929;51.982;4.664;2022-12-11T10:38:19;77336.47;;;-143.36;nan
39209;BME280;24929;51.982;4.664;2022-12-11T10:40:49;77386.66;;;-143.36;nan
39209;BME280;24929;51.982;4.664;2022-12-11T10:43:14;77422.78;;;-143.36;nan
39209;BME280;24929;51.982;4.664;2022-12-11T10:45:49;77406.72;;;-143.36;nan
39209;BME280;24929;51.982;4.664;2022-12-11T10:48:15;77426.78;;;-143.36;nan
39209;BME280;24929;51.982;4.664;2022-12-11T10:50:42;77396.69;;;-143.36;nan
39209;BME280;24929;51.982;4.664;2022-12-11T10:53:19;77366.59;;;-143.36;nan
39209;BME280;24929;51.982;4.664;2022-12-11T10:55:47;77400.72;;;-143.36;nan
39209;BME280;24929;51.982;4.664;2022-12-11T10:58:19;77374.63;;;-143.36;nan
39209;BME280;24929;51.982;4.664;2022-12-11T11:04:19;77376.63;;;-143.36;nan
39209;BME280;24929;51.982;4.664;2022-12-11T11:06:45;77438.84;;;-143.36;nan
39209;BME280;24929;51.982;4.664;2022-12-11T11:09:30;77358.56;;;-143.36;nan
39209;BME280;24929;51.982;4.664;2022-12-11T11:11:55;77436.84;;;-143.36;nan
39209;BME280;24929;51.982;4.664;2022-12-11T11:14:21;77418.78;;;-143.36;nan
39209;BME280;24929;51.982;4.664;2022-12-11T11:16:53;77382.63;;;-143.36;nan
39209;BME280;24929;51.982;4.664;2022-12-11T11:19:28;77348.53;;;-143.36;nan
39209;BME280;24929;51.982;4.664;2022-12-11T11:22:13;77352.53;;;-143.36;nan
39209;BME280;24929;51.982;4.664;2022-12-11T11:24:43;77362.56;;;-143.36;nan
39209;BME280;24929;51.982;4.664;2022-12-11T11:30:02;77386.66;;;-143.36;nan
39209;BME280;24929;51.982;4.664;2022-12-11T11:32:36;77370.59;;;-143.36;nan
39209;BME280;24929;51.982;4.664;2022-12-11T11:35:17;77342.50;;;-143.36;nan
39209;BME280;24929;51.982;4.664;2022-12-11T11:37:45;77378.63;;;-143.36;nan
39209;BME280;24929;51.982;4.664;2022-12-11T11:46:13;77382.63;;;-143.36;nan
39209;BME280;24929;51.982;4.664;2022-12-11T11:51:45;77318.41;;;-143.36;nan
39209;BME280;24929;51.982;4.664;2022-12-11T11:54:36;77328.44;;;-143.36;nan
39209;BME280;24929;51.982;4.664;2022-12-11T11:57:38;77356.53;;;-143.36;nan
39209;BME280;24929;51.982;4.664;2022-12-11T12:00:14;77316.41;;;-143.36;nan
39209;BME280;24929;51.982;4.664;2022-12-11T12:11:47;77324.44;;;-143.36;nan
39209;BME280;24929;51.982;4.664;2022-12-11T12:17:32;77326.44;;;-143.36;nan
39209;BME280;24929;51.982;4.664;2022-12-11T12:20:16;77308.38;;;-143.36;nan
39209;BME280;24929;51.982;4.664;2022-12-11T12:23:13;77304.38;;;-143.36;nan
39209;BME280;24929;51.982;4.664;2022-12-11T12:25:48;77332.47;;;-143.36;nan
39209;BME280;24929;51.982;4.664;2022-12-11T12:36:02;77314.41;;;-143.36;nan
39209;BME280;24929;51.982;4.664;2022-12-11T12:38:54;77310.38;;;-143.36;nan
39209;BME280;24929;51.982;4.664;2022-12-11T12:44:11;77292.31;;;-143.36;nan
39209;BME280;24929;51.982;4.664;2022-12-11T12:46:58;77290.31;;;-143.36;nan
39209;BME280;24929;51.982;4.664;2022-12-11T12:49:45;77276.25;;;-143.36;nan
39209;BME280;24929;51.982;4.664;2022-12-11T12:52:32;77306.38;;;-143.36;nan
39209;BME280;24929;51.982;4.664;2022-12-11T12:55:15;77308.38;;;-143.36;nan
39209;BME280;24929;51.982;4.664;2022-12-11T12:58:07;77288.31;;;-143.36;nan
39209;BME280;24929;51.982;4.664;2022-12-11T13:00:48;77376.63;;;-143.36;nan
39209;BME280;24929;51.982;4.664;2022-12-11T13:03:24;77334.47;;;-143.36;nan
39209;BME280;24929;51.982;4.664;2022-12-11T13:06:05;77356.53;;;-143.36;nan
39209;BME280;24929;51.982;4.664;2022-12-11T13:08:41;77336.47;;;-143.36;nan
39209;BME280;24929;51.982;4.664;2022-12-11T13:11:10;77362.56;;;-143.36;nan
39209;BME280;24929;51.982;4.664;2022-12-11T13:16:25;77326.44;;;-143.36;nan
39209;BME280;24929;51.982;4.664;2022-12-11T13:18:51;77390.66;;;-143.36;nan
39209;BME280;24929;51.982;4.664;2022-12-11T13:23:51;77412.75;;;-143.36;nan
39209;BME280;24929;51.982;4.664;2022-12-11T13:26:28;77376.63;;;-143.36;nan
39209;BME280;24929;51.982;4.664;2022-12-11T13:28:54;77456.91;;;-143.36;nan
39209;BME280;24929;51.982;4.664;2022-12-11T13:33:52;77402.72;;;-143.36;nan
39209;BME280;24929;51.982;4.664;2022-12-11T13:39:07;77398.69;;;-143.36;nan
39209;BME280;24929;51.982;4.664;2022-12-11T13:41:36;77414.75;;;-143.36;nan
39209;BME280;24929;51.982;4.664;2022-12-11T13:44:03;77432.81;;;-143.36;nan
39209;BME280;24929;51.982;4.664;2022-12-11T13:46:34;77424.78;;;-143.36;nan
39209;BME280;24929;51.982;4.664;2022-12-11T13:49:03;77430.81;;;-143.36;nan
39209;BME280;24929;51.982;4.664;2022-12-11T13:51:32;77416.75;;;-143.36;nan
39209;BME280;24929;51.982;4.664;2022-12-11T13:54:19;77362.56;;;-143.36;nan
39209;BME280;24929;51.982;4.664;2022-12-11T13:57:01;77386.66;;;-143.36;nan
39209;BME280;24929;51.982;4.664;2022-12-11T13:59:32;77396.69;;;-143.36;nan
39209;BME280;24929;51.982;4.664;2022-12-11T14:02:03;77394.69;;;-143.36;nan
39209;BME280;24929;51.982;4.664;2022-12-11T14:04:32;77380.63;;;-143.36;nan
39209;BME280;24929;51.982;4.664;2022-12-11T14:06:58;77424.78;;;-143.36;nan
39209;BME280;24929;51.982;4.664;2022-12-11T14:09:26;77414.75;;;-143.36;nan
39209;BME280;24929;51.982;4.664;2022-12-11T14:11:53;77370.59;;;-143.36;nan
39209;BME280;24929;51.982;4.664;2022-12-11T14:14:26;77382.63;;;-143.36;nan
39209;BME280;24929;51.982;4.664;2022-12-11T14:16:55;77392.69;;;-143.36;nan
39209;BME280;24929;51.982;4.664;2022-12-11T14:19:21;77358.56;;;-143.36;nan
39209;BME280;24929;51.982;4.664;2022-12-11T14:22:04;77330.44;;;-143.36;nan
39209;BME280;24929;51.982;4.664;2022-12-11T14:24:31;77368.59;;;-143.36;nan
39209;BME280;24929;51.982;4.664;2022-12-11T14:26:57;77360.56;;;-143.36;nan
39209;BME280;24929;51.982;4.664;2022-12-11T14:29:24;77366.59;;;-143.36;nan
39209;BME280;24929;51.982;4.664;2022-12-11T14:31:50;77398.69;;;-143.36;nan
39209;BME280;24929;51.982;4.664;2022-12-11T14:34:22;77376.63;;;-143.36;nan
39209;BME280;24929;51.982;4.664;2022-12-11T14:36:48;77394.69;;;-143.36;nan
39209;BME280;24929;51.982;4.664;2022-12-11T14:51:40;77432.81;;;-143.36;nan